sensor_id;sensor_type;location;lat;lon;timestamp;temperature;humidity
29849;DHT22;16728;50.832;5.590;2023-05-20T00:00:46;15.00;99.90
29849;DHT22;16728;50.832;5.590;2023-05-20T00:04:24;14.90;99.90
29849;DHT22;16728;50.832;5.590;2023-05-20T00:07:26;15.00;99.90
29849;DHT22;16728;50.832;5.590;2023-05-20T00:10:29;15.00;99.90
29849;DHT22;16728;50.832;5.590;2023-05-20T00:13:30;14.90;99.90
29849;DHT22;16728;50.832;5.590;2023-05-20T00:16:32;14.90;99.90
29849;DHT22;16728;50.832;5.590;2023-05-20T00:19:34;14.80;99.90
29849;DHT22;16728;50.832;5.590;2023-05-20T00:22:40;14.80;99.90
29849;DHT22;16728;50.832;5.590;2023-05-20T00:25:48;14.70;99.90
29849;DHT22;16728;50.832;5.590;2023-05-20T00:28:51;14.70;99.90
29849;DHT22;16728;50.832;5.590;2023-05-20T00:31:53;14.70;99.90
29849;DHT22;16728;50.832;5.590;2023-05-20T00:34:56;14.60;99.90
29849;DHT22;16728;50.832;5.590;2023-05-20T00:37:58;14.60;99.90
29849;DHT22;16728;50.832;5.590;2023-05-20T00:41:01;14.60;99.90
29849;DHT22;16728;50.832;5.590;2023-05-20T00:44:03;14.50;99.90
29849;DHT22;16728;50.832;5.590;2023-05-20T00:47:05;14.40;99.90
29849;DHT22;16728;50.832;5.590;2023-05-20T00:50:09;14.30;99.90
29849;DHT22;16728;50.832;5.590;2023-05-20T00:53:11;14.30;99.90
29849;DHT22;16728;50.832;5.590;2023-05-20T00:56:13;14.30;99.90
29849;DHT22;16728;50.832;5.590;2023-05-20T00:59:16;14.30;99.90
29849;DHT22;16728;50.832;5.590;2023-05-20T01:02:18;14.20;99.90
29849;DHT22;16728;50.832;5.590;2023-05-20T01:05:22;14.10;99.90
29849;DHT22;16728;50.832;5.590;2023-05-20T01:08:24;14.00;99.90
29849;DHT22;16728;50.832;5.590;2023-05-20T01:11:34;13.90;99.90
29849;DHT22;16728;50.832;5.590;2023-05-20T01:14:49;13.80;99.90
29849;DHT22;16728;50.832;5.590;2023-05-20T01:17:56;13.80;99.90
29849;DHT22;16728;50.832;5.590;2023-05-20T01:21:02;13.70;99.90
29849;DHT22;16728;50.832;5.590;2023-05-20T01:24:07;13.70;99.90
29849;DHT22;16728;50.832;5.590;2023-05-20T01:27:12;13.70;99.90
29849;DHT22;16728;50.832;5.590;2023-05-20T01:30:15;13.70;99.90
29849;DHT22;16728;50.832;5.590;2023-05-20T01:33:19;13.80;99.90
29849;DHT22;16728;50.832;5.590;2023-05-20T01:36:25;13.80;99.90
29849;DHT22;16728;50.832;5.590;2023-05-20T01:39:29;13.80;99.90
29849;DHT22;16728;50.832;5.590;2023-05-20T01:42:35;13.70;99.90
29849;DHT22;16728;50.832;5.590;2023-05-20T01:45:40;13.70;99.90
29849;DHT22;16728;50.832;5.590;2023-05-20T01:48:42;13.70;99.90
29849;DHT22;16728;50.832;5.590;2023-05-20T01:51:44;13.70;99.90
29849;DHT22;16728;50.832;5.590;2023-05-20T01:54:49;13.70;99.90
29849;DHT22;16728;50.832;5.590;2023-05-20T01:57:54;13.60;99.90
29849;DHT22;16728;50.832;5.590;2023-05-20T02:00:56;13.50;99.90
29849;DHT22;16728;50.832;5.590;2023-05-20T02:03:58;13.50;99.90
29849;DHT22;16728;50.832;5.590;2023-05-20T02:07:01;13.40;99.90
29849;DHT22;16728;50.832;5.590;2023-05-20T02:10:04;13.30;99.90
29849;DHT22;16728;50.832;5.590;2023-05-20T02:13:11;13.30;99.90
29849;DHT22;16728;50.832;5.590;2023-05-20T02:16:13;13.30;99.90
29849;DHT22;16728;50.832;5.590;2023-05-20T02:19:16;13.30;99.90
29849;DHT22;16728;50.832;5.590;2023-05-20T02:22:24;13.30;99.90
29849;DHT22;16728;50.832;5.590;2023-05-20T02:25:26;13.30;99.90
29849;DHT22;16728;50.832;5.590;2023-05-20T02:28:28;13.30;99.90
29849;DHT22;16728;50.832;5.590;2023-05-20T02:31:31;13.30;99.90
29849;DHT22;16728;50.832;5.590;2023-05-20T02:34:33;13.30;99.90
29849;DHT22;16728;50.832;5.590;2023-05-20T02:37:36;13.20;99.90
29849;DHT22;16728;50.832;5.590;2023-05-20T02:40:42;13.20;99.90
29849;DHT22;16728;50.832;5.590;2023-05-20T02:43:46;13.00;99.90
29849;DHT22;16728;50.832;5.590;2023-05-20T02:46:48;13.00;99.90
29849;DHT22;16728;50.832;5.590;2023-05-20T02:49:50;13.00;99.90
29849;DHT22;16728;50.832;5.590;2023-05-20T02:52:51;12.90;99.90
29849;DHT22;16728;50.832;5.590;2023-05-20T02:55:54;12.90;99.90
29849;DHT22;16728;50.832;5.590;2023-05-20T02:58:56;12.80;99.90
29849;DHT22;16728;50.832;5.590;2023-05-20T03:02:00;13.00;99.90
29849;DHT22;16728;50.832;5.590;2023-05-20T03:05:04;12.90;99.90
29849;DHT22;16728;50.832;5.590;2023-05-20T03:08:10;12.80;99.90
29849;DHT22;16728;50.832;5.590;2023-05-20T03:11:12;12.80;99.90
29849;DHT22;16728;50.832;5.590;2023-05-20T03:14:14;12.70;99.90
29849;DHT22;16728;50.832;5.590;2023-05-20T03:17:16;12.70;99.90
29849;DHT22;16728;50.832;5.590;2023-05-20T03:20:19;12.60;99.90
29849;DHT22;16728;50.832;5.590;2023-05-20T03:23:21;12.70;99.90
29849;DHT22;16728;50.832;5.590;2023-05-20T03:26:24;12.70;99.90
29849;DHT22;16728;50.832;5.590;2023-05-20T03:29:26;12.50;99.90
29849;DHT22;16728;50.832;5.590;2023-05-20T03:32:28;12.50;99.90
29849;DHT22;16728;50.832;5.590;2023-05-20T03:35:30;12.40;99.90
29849;DHT22;16728;50.832;5.590;2023-05-20T03:38:32;12.40;99.90
29849;DHT22;16728;50.832;5.590;2023-05-20T03:41:43;12.40;99.90
29849;DHT22;16728;50.832;5.590;2023-05-20T03:44:45;12.50;99.90
29849;DHT22;16728;50.832;5.590;2023-05-20T03:47:47;12.50;99.90
29849;DHT22;16728;50.832;5.590;2023-05-20T03:50:49;12.40;99.90
29849;DHT22;16728;50.832;5.590;2023-05-20T03:53:51;12.30;99.90
29849;DHT22;16728;50.832;5.590;2023-05-20T03:56:58;12.30;99.90
29849;DHT22;16728;50.832;5.590;2023-05-20T04:00:04;12.30;99.90
29849;DHT22;16728;50.832;5.590;2023-05-20T04:03:12;12.30;99.90
29849;DHT22;16728;50.832;5.590;2023-05-20T04:06:14;12.30;99.90
29849;DHT22;16728;50.832;5.590;2023-05-20T04:09:16;12.30;99.90
29849;DHT22;16728;50.832;5.590;2023-05-20T04:12:18;12.30;99.90
29849;DHT22;16728;50.832;5.590;2023-05-20T04:15:26;12.40;99.90
29849;DHT22;16728;50.832;5.590;2023-05-20T04:18:30;12.50;99.90
29849;DHT22;16728;50.832;5.590;2023-05-20T04:21:33;12.40;99.90
29849;DHT22;16728;50.832;5.590;2023-05-20T04:24:35;12.50;99.90
29849;DHT22;16728;50.832;5.590;2023-05-20T04:27:39;12.50;99.90
29849;DHT22;16728;50.832;5.590;2023-05-20T04:30:41;12.40;99.90
29849;DHT22;16728;50.832;5.590;2023-05-20T04:33:46;12.20;99.90
29849;DHT22;16728;50.832;5.590;2023-05-20T04:36:48;12.30;99.90
29849;DHT22;16728;50.832;5.590;2023-05-20T04:39:50;12.20;99.90
29849;DHT22;16728;50.832;5.590;2023-05-20T04:42:53;12.20;99.90
29849;DHT22;16728;50.832;5.590;2023-05-20T04:45:58;12.20;99.90
29849;DHT22;16728;50.832;5.590;2023-05-20T04:49:02;12.30;99.90
29849;DHT22;16728;50.832;5.590;2023-05-20T04:52:05;12.30;99.90
29849;DHT22;16728;50.832;5.590;2023-05-20T04:55:08;12.20;99.90
29849;DHT22;16728;50.832;5.590;2023-05-20T04:58:16;12.30;99.90
29849;DHT22;16728;50.832;5.590;2023-05-20T05:01:18;12.30;99.90
29849;DHT22;16728;50.832;5.590;2023-05-20T05:04:21;12.30;99.90
29849;DHT22;16728;50.832;5.590;2023-05-20T05:07:23;12.50;99.90
29849;DHT22;16728;50.832;5.590;2023-05-20T05:10:29;12.50;99.90
29849;DHT22;16728;50.832;5.590;2023-05-20T05:13:30;12.50;99.90
29849;DHT22;16728;50.832;5.590;2023-05-20T05:16:37;12.50;99.90
29849;DHT22;16728;50.832;5.590;2023-05-20T05:19:39;12.60;99.90
29849;DHT22;16728;50.832;5.590;2023-05-20T05:22:41;12.70;99.90
29849;DHT22;16728;50.832;5.590;2023-05-20T05:25:43;12.70;99.90
29849;DHT22;16728;50.832;5.590;2023-05-20T05:28:45;12.70;99.90
29849;DHT22;16728;50.832;5.590;2023-05-20T05:31:47;12.80;99.90
29849;DHT22;16728;50.832;5.590;2023-05-20T05:34:49;12.90;99.90
29849;DHT22;16728;50.832;5.590;2023-05-20T05:37:51;12.90;99.90
29849;DHT22;16728;50.832;5.590;2023-05-20T05:40:55;12.90;99.90
29849;DHT22;16728;50.832;5.590;2023-05-20T05:43:58;13.00;99.90
29849;DHT22;16728;50.832;5.590;2023-05-20T05:47:00;13.00;99.90
29849;DHT22;16728;50.832;5.590;2023-05-20T05:50:02;13.00;99.90
29849;DHT22;16728;50.832;5.590;2023-05-20T05:53:05;13.20;99.90
29849;DHT22;16728;50.832;5.590;2023-05-20T05:56:08;13.20;99.90
29849;DHT22;16728;50.832;5.590;2023-05-20T05:59:10;13.30;99.90
29849;DHT22;16728;50.832;5.590;2023-05-20T06:02:12;13.30;99.90
29849;DHT22;16728;50.832;5.590;2023-05-20T06:05:25;13.50;99.90
29849;DHT22;16728;50.832;5.590;2023-05-20T06:08:30;13.60;99.90
29849;DHT22;16728;50.832;5.590;2023-05-20T06:11:33;13.70;99.90
29849;DHT22;16728;50.832;5.590;2023-05-20T06:14:35;13.80;99.90
29849;DHT22;16728;50.832;5.590;2023-05-20T06:17:36;13.90;99.90
29849;DHT22;16728;50.832;5.590;2023-05-20T06:20:38;14.00;99.90
29849;DHT22;16728;50.832;5.590;2023-05-20T06:23:41;14.00;99.90
29849;DHT22;16728;50.832;5.590;2023-05-20T06:26:43;14.10;99.90
29849;DHT22;16728;50.832;5.590;2023-05-20T06:29:51;14.20;99.90
29849;DHT22;16728;50.832;5.590;2023-05-20T06:32:53;14.20;99.90
29849;DHT22;16728;50.832;5.590;2023-05-20T06:35:56;14.30;99.90
29849;DHT22;16728;50.832;5.590;2023-05-20T06:38:58;14.30;99.90
29849;DHT22;16728;50.832;5.590;2023-05-20T06:42:01;14.40;99.90
29849;DHT22;16728;50.832;5.590;2023-05-20T06:45:04;14.40;99.90
29849;DHT22;16728;50.832;5.590;2023-05-20T06:48:07;14.50;99.90
29849;DHT22;16728;50.832;5.590;2023-05-20T06:51:09;14.60;99.90
29849;DHT22;16728;50.832;5.590;2023-05-20T06:54:11;14.60;99.90
29849;DHT22;16728;50.832;5.590;2023-05-20T06:57:13;14.70;99.90
29849;DHT22;16728;50.832;5.590;2023-05-20T07:00:16;14.80;99.90
29849;DHT22;16728;50.832;5.590;2023-05-20T07:03:18;14.90;99.90
29849;DHT22;16728;50.832;5.590;2023-05-20T07:06:28;15.00;99.90
29849;DHT22;16728;50.832;5.590;2023-05-20T07:09:32;14.90;99.90
29849;DHT22;16728;50.832;5.590;2023-05-20T07:12:34;15.00;99.90
29849;DHT22;16728;50.832;5.590;2023-05-20T07:15:37;15.00;99.90
29849;DHT22;16728;50.832;5.590;2023-05-20T07:18:39;15.10;99.90
29849;DHT22;16728;50.832;5.590;2023-05-20T07:21:41;15.10;99.90
29849;DHT22;16728;50.832;5.590;2023-05-20T07:24:45;15.30;99.90
29849;DHT22;16728;50.832;5.590;2023-05-20T07:27:47;15.30;99.90
29849;DHT22;16728;50.832;5.590;2023-05-20T07:30:49;15.50;99.90
29849;DHT22;16728;50.832;5.590;2023-05-20T07:33:51;15.50;99.90
29849;DHT22;16728;50.832;5.590;2023-05-20T07:36:53;15.60;99.90
29849;DHT22;16728;50.832;5.590;2023-05-20T07:39:55;15.60;99.90
29849;DHT22;16728;50.832;5.590;2023-05-20T07:42:58;15.70;99.90
29849;DHT22;16728;50.832;5.590;2023-05-20T07:46:01;15.90;99.90
29849;DHT22;16728;50.832;5.590;2023-05-20T07:49:03;15.90;99.90
29849;DHT22;16728;50.832;5.590;2023-05-20T07:52:06;15.90;99.90
29849;DHT22;16728;50.832;5.590;2023-05-20T07:55:08;16.00;99.90
29849;DHT22;16728;50.832;5.590;2023-05-20T07:58:09;16.00;99.90
29849;DHT22;16728;50.832;5.590;2023-05-20T08:01:14;16.10;99.90
29849;DHT22;16728;50.832;5.590;2023-05-20T08:04:16;16.10;99.90
29849;DHT22;16728;50.832;5.590;2023-05-20T08:07:18;16.20;99.90
29849;DHT22;16728;50.832;5.590;2023-05-20T08:10:21;16.30;99.90
29849;DHT22;16728;50.832;5.590;2023-05-20T08:13:23;16.30;99.90
29849;DHT22;16728;50.832;5.590;2023-05-20T08:16:25;16.40;99.90
29849;DHT22;16728;50.832;5.590;2023-05-20T08:19:28;16.30;99.90
29849;DHT22;16728;50.832;5.590;2023-05-20T08:22:30;16.30;99.90
29849;DHT22;16728;50.832;5.590;2023-05-20T08:25:33;16.30;99.90
29849;DHT22;16728;50.832;5.590;2023-05-20T08:28:35;16.40;99.90
29849;DHT22;16728;50.832;5.590;2023-05-20T08:31:40;16.40;99.90
29849;DHT22;16728;50.832;5.590;2023-05-20T08:34:42;16.50;99.90
29849;DHT22;16728;50.832;5.590;2023-05-20T08:37:45;16.70;99.90
29849;DHT22;16728;50.832;5.590;2023-05-20T08:40:56;16.80;99.90
29849;DHT22;16728;50.832;5.590;2023-05-20T08:44:05;16.90;99.90
29849;DHT22;16728;50.832;5.590;2023-05-20T08:47:09;17.10;99.90
29849;DHT22;16728;50.832;5.590;2023-05-20T08:50:12;17.10;99.90
29849;DHT22;16728;50.832;5.590;2023-05-20T08:53:15;17.20;99.90
29849;DHT22;16728;50.832;5.590;2023-05-20T08:56:19;17.20;99.90
29849;DHT22;16728;50.832;5.590;2023-05-20T08:59:22;17.30;99.90
29849;DHT22;16728;50.832;5.590;2023-05-20T09:02:24;17.40;99.90
29849;DHT22;16728;50.832;5.590;2023-05-20T09:05:28;17.40;99.90
29849;DHT22;16728;50.832;5.590;2023-05-20T09:08:32;17.30;99.90
29849;DHT22;16728;50.832;5.590;2023-05-20T09:11:34;17.30;99.90
29849;DHT22;16728;50.832;5.590;2023-05-20T09:14:36;17.40;99.90
29849;DHT22;16728;50.832;5.590;2023-05-20T09:17:38;17.40;99.90
29849;DHT22;16728;50.832;5.590;2023-05-20T09:20:46;17.40;99.90
29849;DHT22;16728;50.832;5.590;2023-05-20T09:23:48;17.60;99.90
29849;DHT22;16728;50.832;5.590;2023-05-20T09:26:53;17.70;99.90
29849;DHT22;16728;50.832;5.590;2023-05-20T09:29:55;17.80;99.90
29849;DHT22;16728;50.832;5.590;2023-05-20T09:32:58;17.90;99.90
29849;DHT22;16728;50.832;5.590;2023-05-20T09:36:06;17.80;99.90
29849;DHT22;16728;50.832;5.590;2023-05-20T09:39:15;18.00;99.90
29849;DHT22;16728;50.832;5.590;2023-05-20T09:42:30;18.00;99.90
29849;DHT22;16728;50.832;5.590;2023-05-20T09:45:37;18.10;99.90
29849;DHT22;16728;50.832;5.590;2023-05-20T09:48:39;18.10;99.90
29849;DHT22;16728;50.832;5.590;2023-05-20T09:51:42;18.20;99.90
29849;DHT22;16728;50.832;5.590;2023-05-20T09:54:45;18.30;99.90
29849;DHT22;16728;50.832;5.590;2023-05-20T09:57:49;18.40;99.90
29849;DHT22;16728;50.832;5.590;2023-05-20T10:00:52;18.50;99.90
29849;DHT22;16728;50.832;5.590;2023-05-20T10:03:59;18.50;99.90
29849;DHT22;16728;50.832;5.590;2023-05-20T10:20:47;18.60;99.90
29849;DHT22;16728;50.832;5.590;2023-05-20T10:23:50;18.60;99.90
29849;DHT22;16728;50.832;5.590;2023-05-20T10:26:54;18.60;99.90
29849;DHT22;16728;50.832;5.590;2023-05-20T10:30:01;18.60;99.90
29849;DHT22;16728;50.832;5.590;2023-05-20T10:33:05;18.50;99.90
29849;DHT22;16728;50.832;5.590;2023-05-20T10:36:07;18.40;99.90
29849;DHT22;16728;50.832;5.590;2023-05-20T10:39:14;18.50;99.90
29849;DHT22;16728;50.832;5.590;2023-05-20T10:42:27;18.50;99.90
29849;DHT22;16728;50.832;5.590;2023-05-20T10:45:30;18.80;99.90
29849;DHT22;16728;50.832;5.590;2023-05-20T10:48:33;18.80;99.90
29849;DHT22;16728;50.832;5.590;2023-05-20T10:51:35;18.90;99.90
29849;DHT22;16728;50.832;5.590;2023-05-20T10:54:46;18.90;99.90
29849;DHT22;16728;50.832;5.590;2023-05-20T10:57:51;19.00;99.90
29849;DHT22;16728;50.832;5.590;2023-05-20T11:00:58;19.10;99.90
29849;DHT22;16728;50.832;5.590;2023-05-20T11:04:01;19.10;99.90
29849;DHT22;16728;50.832;5.590;2023-05-20T11:07:05;19.20;99.90
29849;DHT22;16728;50.832;5.590;2023-05-20T11:10:08;19.20;99.90
29849;DHT22;16728;50.832;5.590;2023-05-20T11:13:12;19.20;99.90
29849;DHT22;16728;50.832;5.590;2023-05-20T11:16:18;18.90;99.90
29849;DHT22;16728;50.832;5.590;2023-05-20T11:19:21;18.90;99.90
29849;DHT22;16728;50.832;5.590;2023-05-20T11:22:24;18.90;99.90
29849;DHT22;16728;50.832;5.590;2023-05-20T11:25:26;19.00;99.90
29849;DHT22;16728;50.832;5.590;2023-05-20T11:28:29;19.00;99.90
29849;DHT22;16728;50.832;5.590;2023-05-20T11:31:31;19.10;99.90
29849;DHT22;16728;50.832;5.590;2023-05-20T11:34:35;19.20;99.90
29849;DHT22;16728;50.832;5.590;2023-05-20T11:37:37;19.10;99.90
29849;DHT22;16728;50.832;5.590;2023-05-20T11:40:52;19.20;99.90
29849;DHT22;16728;50.832;5.590;2023-05-20T11:43:58;19.20;99.90
29849;DHT22;16728;50.832;5.590;2023-05-20T11:47:01;19.20;99.90
29849;DHT22;16728;50.832;5.590;2023-05-20T11:50:03;19.30;99.90
29849;DHT22;16728;50.832;5.590;2023-05-20T11:53:10;19.20;99.90
29849;DHT22;16728;50.832;5.590;2023-05-20T11:56:21;19.30;99.90
29849;DHT22;16728;50.832;5.590;2023-05-20T11:59:24;19.30;99.90
29849;DHT22;16728;50.832;5.590;2023-05-20T12:02:26;19.40;99.90
29849;DHT22;16728;50.832;5.590;2023-05-20T12:05:30;19.50;99.90
29849;DHT22;16728;50.832;5.590;2023-05-20T12:08:32;19.50;99.90
29849;DHT22;16728;50.832;5.590;2023-05-20T12:11:38;19.60;99.90
29849;DHT22;16728;50.832;5.590;2023-05-20T12:14:41;19.80;99.90
29849;DHT22;16728;50.832;5.590;2023-05-20T12:17:51;19.90;99.90
29849;DHT22;16728;50.832;5.590;2023-05-20T12:20:53;19.90;99.90
29849;DHT22;16728;50.832;5.590;2023-05-20T12:23:55;19.90;99.90
29849;DHT22;16728;50.832;5.590;2023-05-20T12:27:01;20.00;99.90
29849;DHT22;16728;50.832;5.590;2023-05-20T12:30:05;19.90;99.90
29849;DHT22;16728;50.832;5.590;2023-05-20T12:33:08;19.80;99.90
29849;DHT22;16728;50.832;5.590;2023-05-20T12:36:10;19.80;99.90
29849;DHT22;16728;50.832;5.590;2023-05-20T12:39:13;19.90;99.90
29849;DHT22;16728;50.832;5.590;2023-05-20T12:42:18;19.90;99.90
29849;DHT22;16728;50.832;5.590;2023-05-20T12:45:20;19.90;99.90
29849;DHT22;16728;50.832;5.590;2023-05-20T12:48:21;19.90;99.90
29849;DHT22;16728;50.832;5.590;2023-05-20T12:51:23;19.80;99.90
29849;DHT22;16728;50.832;5.590;2023-05-20T12:54:26;19.90;99.90
29849;DHT22;16728;50.832;5.590;2023-05-20T12:57:29;19.80;99.90
29849;DHT22;16728;50.832;5.590;2023-05-20T13:00:30;20.00;99.90
29849;DHT22;16728;50.832;5.590;2023-05-20T13:03:33;20.10;99.90
29849;DHT22;16728;50.832;5.590;2023-05-20T13:06:37;20.10;99.90
29849;DHT22;16728;50.832;5.590;2023-05-20T13:09:40;20.10;99.90
29849;DHT22;16728;50.832;5.590;2023-05-20T13:12:41;20.10;99.90
29849;DHT22;16728;50.832;5.590;2023-05-20T13:15:47;20.20;99.90
29849;DHT22;16728;50.832;5.590;2023-05-20T13:18:52;20.20;99.90
29849;DHT22;16728;50.832;5.590;2023-05-20T13:21:55;20.20;99.90
29849;DHT22;16728;50.832;5.590;2023-05-20T13:24:57;20.10;99.90
29849;DHT22;16728;50.832;5.590;2023-05-20T13:28:03;20.10;99.90
29849;DHT22;16728;50.832;5.590;2023-05-20T13:31:07;20.10;99.90
29849;DHT22;16728;50.832;5.590;2023-05-20T13:34:14;20.20;99.90
29849;DHT22;16728;50.832;5.590;2023-05-20T13:37:16;20.20;99.90
29849;DHT22;16728;50.832;5.590;2023-05-20T13:40:18;20.20;99.90
29849;DHT22;16728;50.832;5.590;2023-05-20T13:43:20;20.00;99.90
29849;DHT22;16728;50.832;5.590;2023-05-20T13:46:23;20.00;99.90
29849;DHT22;16728;50.832;5.590;2023-05-20T13:49:25;19.90;99.90
29849;DHT22;16728;50.832;5.590;2023-05-20T13:52:27;19.90;99.90
29849;DHT22;16728;50.832;5.590;2023-05-20T13:55:29;19.90;99.90
29849;DHT22;16728;50.832;5.590;2023-05-20T13:58:32;19.90;99.90
29849;DHT22;16728;50.832;5.590;2023-05-20T14:01:34;19.80;99.90
29849;DHT22;16728;50.832;5.590;2023-05-20T14:04:37;19.80;99.90
29849;DHT22;16728;50.832;5.590;2023-05-20T14:07:41;19.80;99.90
29849;DHT22;16728;50.832;5.590;2023-05-20T14:10:43;19.80;99.90
29849;DHT22;16728;50.832;5.590;2023-05-20T14:13:46;19.80;99.90
29849;DHT22;16728;50.832;5.590;2023-05-20T14:16:51;19.80;99.90
29849;DHT22;16728;50.832;5.590;2023-05-20T14:19:53;19.80;99.90
29849;DHT22;16728;50.832;5.590;2023-05-20T14:23:00;19.80;99.90
29849;DHT22;16728;50.832;5.590;2023-05-20T14:26:02;19.90;99.90
29849;DHT22;16728;50.832;5.590;2023-05-20T14:29:05;19.80;99.90
29849;DHT22;16728;50.832;5.590;2023-05-20T14:32:07;19.90;99.90
29849;DHT22;16728;50.832;5.590;2023-05-20T14:35:09;19.90;99.90
29849;DHT22;16728;50.832;5.590;2023-05-20T14:38:11;19.90;99.90
29849;DHT22;16728;50.832;5.590;2023-05-20T14:41:15;19.90;99.90
29849;DHT22;16728;50.832;5.590;2023-05-20T14:44:17;20.00;99.90
29849;DHT22;16728;50.832;5.590;2023-05-20T14:47:19;19.80;99.90
29849;DHT22;16728;50.832;5.590;2023-05-20T14:50:22;19.90;99.90
29849;DHT22;16728;50.832;5.590;2023-05-20T14:53:24;19.90;99.90
29849;DHT22;16728;50.832;5.590;2023-05-20T14:56:26;19.80;99.90
29849;DHT22;16728;50.832;5.590;2023-05-20T14:59:28;19.80;99.90
29849;DHT22;16728;50.832;5.590;2023-05-20T15:02:30;19.80;99.90
29849;DHT22;16728;50.832;5.590;2023-05-20T15:05:33;19.80;99.90
29849;DHT22;16728;50.832;5.590;2023-05-20T15:08:35;19.60;99.90
29849;DHT22;16728;50.832;5.590;2023-05-20T15:11:38;19.60;99.90
29849;DHT22;16728;50.832;5.590;2023-05-20T15:14:40;19.60;99.90
29849;DHT22;16728;50.832;5.590;2023-05-20T15:17:42;19.60;99.90
29849;DHT22;16728;50.832;5.590;2023-05-20T15:20:44;19.50;99.90
29849;DHT22;16728;50.832;5.590;2023-05-20T15:23:46;19.60;99.90
29849;DHT22;16728;50.832;5.590;2023-05-20T15:26:48;19.60;99.90
29849;DHT22;16728;50.832;5.590;2023-05-20T15:29:50;19.60;99.90
29849;DHT22;16728;50.832;5.590;2023-05-20T15:32:52;19.60;99.90
29849;DHT22;16728;50.832;5.590;2023-05-20T15:35:54;19.70;99.90
29849;DHT22;16728;50.832;5.590;2023-05-20T15:38:56;19.70;99.90
29849;DHT22;16728;50.832;5.590;2023-05-20T15:41:58;19.70;99.90
29849;DHT22;16728;50.832;5.590;2023-05-20T15:45:02;19.70;99.90
29849;DHT22;16728;50.832;5.590;2023-05-20T15:48:05;19.50;99.90
29849;DHT22;16728;50.832;5.590;2023-05-20T15:51:08;19.50;99.90
29849;DHT22;16728;50.832;5.590;2023-05-20T15:54:10;19.50;99.90
29849;DHT22;16728;50.832;5.590;2023-05-20T15:57:12;19.50;99.90
29849;DHT22;16728;50.832;5.590;2023-05-20T16:00:17;19.40;99.90
29849;DHT22;16728;50.832;5.590;2023-05-20T16:03:19;19.40;99.90
29849;DHT22;16728;50.832;5.590;2023-05-20T16:06:21;19.40;99.90
29849;DHT22;16728;50.832;5.590;2023-05-20T16:09:24;19.40;99.90
29849;DHT22;16728;50.832;5.590;2023-05-20T16:12:25;19.40;99.90
29849;DHT22;16728;50.832;5.590;2023-05-20T16:15:27;19.40;99.90
29849;DHT22;16728;50.832;5.590;2023-05-20T16:18:36;19.40;99.90
29849;DHT22;16728;50.832;5.590;2023-05-20T16:21:38;19.30;99.90
29849;DHT22;16728;50.832;5.590;2023-05-20T16:24:41;19.30;99.90
29849;DHT22;16728;50.832;5.590;2023-05-20T16:27:42;19.30;99.90
29849;DHT22;16728;50.832;5.590;2023-05-20T16:30:44;19.20;99.90
29849;DHT22;16728;50.832;5.590;2023-05-20T16:33:46;19.20;99.90
29849;DHT22;16728;50.832;5.590;2023-05-20T16:36:49;19.20;99.90
29849;DHT22;16728;50.832;5.590;2023-05-20T16:39:50;19.20;99.90
29849;DHT22;16728;50.832;5.590;2023-05-20T16:42:52;19.20;99.90
29849;DHT22;16728;50.832;5.590;2023-05-20T16:45:54;19.10;99.90
29849;DHT22;16728;50.832;5.590;2023-05-20T16:48:57;19.10;99.90
29849;DHT22;16728;50.832;5.590;2023-05-20T16:51:59;19.00;99.90
29849;DHT22;16728;50.832;5.590;2023-05-20T16:55:03;19.00;99.90
29849;DHT22;16728;50.832;5.590;2023-05-20T16:58:05;19.00;99.90
29849;DHT22;16728;50.832;5.590;2023-05-20T17:01:07;19.00;99.90
29849;DHT22;16728;50.832;5.590;2023-05-20T17:04:09;19.00;99.90
29849;DHT22;16728;50.832;5.590;2023-05-20T17:07:43;18.90;99.90
29849;DHT22;16728;50.832;5.590;2023-05-20T17:10:45;18.90;99.90
29849;DHT22;16728;50.832;5.590;2023-05-20T17:13:49;18.90;99.90
29849;DHT22;16728;50.832;5.590;2023-05-20T17:16:50;19.00;99.90
29849;DHT22;16728;50.832;5.590;2023-05-20T17:19:53;19.00;99.90
29849;DHT22;16728;50.832;5.590;2023-05-20T17:22:55;18.90;99.90
29849;DHT22;16728;50.832;5.590;2023-05-20T17:26:00;19.00;99.90
29849;DHT22;16728;50.832;5.590;2023-05-20T17:29:02;19.00;99.90
29849;DHT22;16728;50.832;5.590;2023-05-20T17:32:04;19.00;99.90
29849;DHT22;16728;50.832;5.590;2023-05-20T17:35:07;18.90;99.90
29849;DHT22;16728;50.832;5.590;2023-05-20T17:38:09;18.90;99.90
29849;DHT22;16728;50.832;5.590;2023-05-20T17:41:11;19.00;99.90
29849;DHT22;16728;50.832;5.590;2023-05-20T17:44:14;19.00;99.90
29849;DHT22;16728;50.832;5.590;2023-05-20T17:47:16;19.00;99.90
29849;DHT22;16728;50.832;5.590;2023-05-20T17:50:18;19.00;99.90
29849;DHT22;16728;50.832;5.590;2023-05-20T17:53:19;18.90;99.90
29849;DHT22;16728;50.832;5.590;2023-05-20T17:56:24;19.00;99.90
29849;DHT22;16728;50.832;5.590;2023-05-20T17:59:27;19.00;99.90
29849;DHT22;16728;50.832;5.590;2023-05-20T18:02:31;18.90;99.90
29849;DHT22;16728;50.832;5.590;2023-05-20T18:05:33;18.90;99.90
29849;DHT22;16728;50.832;5.590;2023-05-20T18:08:38;18.90;99.90
29849;DHT22;16728;50.832;5.590;2023-05-20T18:11:39;18.90;99.90
29849;DHT22;16728;50.832;5.590;2023-05-20T18:14:46;18.80;99.90
29849;DHT22;16728;50.832;5.590;2023-05-20T18:17:48;18.80;99.90
29849;DHT22;16728;50.832;5.590;2023-05-20T18:20:50;18.70;99.90
29849;DHT22;16728;50.832;5.590;2023-05-20T18:23:53;18.70;99.90
29849;DHT22;16728;50.832;5.590;2023-05-20T18:26:56;18.70;99.90
29849;DHT22;16728;50.832;5.590;2023-05-20T18:29:58;18.70;99.90
29849;DHT22;16728;50.832;5.590;2023-05-20T18:33:00;18.70;99.90
29849;DHT22;16728;50.832;5.590;2023-05-20T18:36:03;18.60;99.90
29849;DHT22;16728;50.832;5.590;2023-05-20T18:39:07;18.60;99.90
29849;DHT22;16728;50.832;5.590;2023-05-20T18:42:09;18.60;99.90
29849;DHT22;16728;50.832;5.590;2023-05-20T18:45:11;18.50;99.90
29849;DHT22;16728;50.832;5.590;2023-05-20T18:48:14;18.50;99.90
29849;DHT22;16728;50.832;5.590;2023-05-20T18:51:27;18.50;99.90
29849;DHT22;16728;50.832;5.590;2023-05-20T18:54:33;18.50;99.90
29849;DHT22;16728;50.832;5.590;2023-05-20T18:57:36;18.40;99.90
29849;DHT22;16728;50.832;5.590;2023-05-20T19:00:39;18.50;99.90
29849;DHT22;16728;50.832;5.590;2023-05-20T19:03:41;18.50;99.90
29849;DHT22;16728;50.832;5.590;2023-05-20T19:06:45;18.50;99.90
29849;DHT22;16728;50.832;5.590;2023-05-20T19:09:55;18.40;99.90
29849;DHT22;16728;50.832;5.590;2023-05-20T19:12:57;18.30;99.90
29849;DHT22;16728;50.832;5.590;2023-05-20T19:16:00;18.30;99.90
29849;DHT22;16728;50.832;5.590;2023-05-20T19:19:02;18.30;99.90
29849;DHT22;16728;50.832;5.590;2023-05-20T19:22:04;18.30;99.90
29849;DHT22;16728;50.832;5.590;2023-05-20T19:25:07;18.30;99.90
29849;DHT22;16728;50.832;5.590;2023-05-20T19:28:12;18.20;99.90
29849;DHT22;16728;50.832;5.590;2023-05-20T19:31:14;18.30;99.90